sensor_id;sensor_type;location;lat;lon;timestamp;P1;durP1;ratioP1;P2;durP2;ratioP2
21639;SDS011;10981;45.462;10.974;2023-04-24T00:01:10;8.98;;;6.15;;
21639;SDS011;10981;45.462;10.974;2023-04-24T00:03:40;9.05;;;6.28;;
21639;SDS011;10981;45.462;10.974;2023-04-24T00:06:08;7.50;;;6.10;;
21639;SDS011;10981;45.462;10.974;2023-04-24T00:08:36;10.55;;;6.97;;
21639;SDS011;10981;45.462;10.974;2023-04-24T00:11:05;9.88;;;7.05;;
21639;SDS011;10981;45.462;10.974;2023-04-24T00:13:33;8.27;;;6.60;;
21639;SDS011;10981;45.462;10.974;2023-04-24T00:16:01;6.90;;;6.15;;
21639;SDS011;10981;45.462;10.974;2023-04-24T00:18:30;7.45;;;6.30;;
21639;SDS011;10981;45.462;10.974;2023-04-24T00:20:58;11.13;;;6.93;;
21639;SDS011;10981;45.462;10.974;2023-04-24T00:23:26;13.23;;;7.90;;
21639;SDS011;10981;45.462;10.974;2023-04-24T00:25:55;8.32;;;6.28;;
21639;SDS011;10981;45.462;10.974;2023-04-24T00:28:23;9.00;;;5.82;;
21639;SDS011;10981;45.462;10.974;2023-04-24T00:30:51;14.32;;;6.82;;
21639;SDS011;10981;45.462;10.974;2023-04-24T00:33:20;7.75;;;6.03;;
21639;SDS011;10981;45.462;10.974;2023-04-24T00:35:48;7.30;;;5.25;;
21639;SDS011;10981;45.462;10.974;2023-04-24T00:38:16;7.00;;;5.70;;
21639;SDS011;10981;45.462;10.974;2023-04-24T00:40:45;10.70;;;5.97;;
21639;SDS011;10981;45.462;10.974;2023-04-24T00:43:15;7.43;;;6.07;;
21639;SDS011;10981;45.462;10.974;2023-04-24T00:45:43;7.63;;;6.13;;
21639;SDS011;10981;45.462;10.974;2023-04-24T00:48:12;8.32;;;5.95;;
21639;SDS011;10981;45.462;10.974;2023-04-24T00:50:42;7.25;;;5.30;;
21639;SDS011;10981;45.462;10.974;2023-04-24T00:53:10;8.05;;;5.35;;
21639;SDS011;10981;45.462;10.974;2023-04-24T00:55:39;9.90;;;5.57;;
21639;SDS011;10981;45.462;10.974;2023-04-24T00:58:07;7.60;;;5.55;;
21639;SDS011;10981;45.462;10.974;2023-04-24T01:00:36;8.80;;;5.07;;
21639;SDS011;10981;45.462;10.974;2023-04-24T01:03:05;9.82;;;5.28;;
21639;SDS011;10981;45.462;10.974;2023-04-24T01:05:35;7.97;;;5.32;;
21639;SDS011;10981;45.462;10.974;2023-04-24T01:08:03;7.65;;;6.32;;
21639;SDS011;10981;45.462;10.974;2023-04-24T01:10:32;14.50;;;6.10;;
21639;SDS011;10981;45.462;10.974;2023-04-24T01:13:01;7.18;;;5.95;;
21639;SDS011;10981;45.462;10.974;2023-04-24T01:15:30;7.43;;;6.00;;
21639;SDS011;10981;45.462;10.974;2023-04-24T01:17:58;9.93;;;6.28;;
21639;SDS011;10981;45.462;10.974;2023-04-24T01:20:26;8.70;;;5.90;;
21639;SDS011;10981;45.462;10.974;2023-04-24T01:22:56;6.93;;;5.43;;
21639;SDS011;10981;45.462;10.974;2023-04-24T01:25:24;6.68;;;5.30;;
21639;SDS011;10981;45.462;10.974;2023-04-24T01:27:57;7.70;;;5.90;;
21639;SDS011;10981;45.462;10.974;2023-04-24T01:30:26;8.25;;;5.55;;
21639;SDS011;10981;45.462;10.974;2023-04-24T01:32:56;9.88;;;6.32;;
21639;SDS011;10981;45.462;10.974;2023-04-24T01:35:27;12.07;;;6.22;;
21639;SDS011;10981;45.462;10.974;2023-04-24T01:37:55;8.18;;;5.88;;
21639;SDS011;10981;45.462;10.974;2023-04-24T01:40:24;10.43;;;6.60;;
21639;SDS011;10981;45.462;10.974;2023-04-24T01:42:52;11.55;;;7.00;;
21639;SDS011;10981;45.462;10.974;2023-04-24T01:45:21;11.43;;;6.53;;
21639;SDS011;10981;45.462;10.974;2023-04-24T01:47:50;8.35;;;6.90;;
21639;SDS011;10981;45.462;10.974;2023-04-24T01:50:19;8.68;;;7.07;;
21639;SDS011;10981;45.462;10.974;2023-04-24T01:52:47;10.27;;;7.20;;
21639;SDS011;10981;45.462;10.974;2023-04-24T01:55:15;11.05;;;7.55;;
21639;SDS011;10981;45.462;10.974;2023-04-24T01:57:45;9.25;;;7.38;;
21639;SDS011;10981;45.462;10.974;2023-04-24T02:00:13;14.27;;;8.50;;
21639;SDS011;10981;45.462;10.974;2023-04-24T02:02:41;13.25;;;9.27;;
21639;SDS011;10981;45.462;10.974;2023-04-24T02:05:14;14.73;;;10.20;;
21639;SDS011;10981;45.462;10.974;2023-04-24T02:07:42;16.33;;;11.43;;
21639;SDS011;10981;45.462;10.974;2023-04-24T02:10:10;18.08;;;12.45;;
21639;SDS011;10981;45.462;10.974;2023-04-24T02:12:42;16.10;;;11.73;;
21639;SDS011;10981;45.462;10.974;2023-04-24T02:15:10;18.65;;;12.77;;
21639;SDS011;10981;45.462;10.974;2023-04-24T02:17:39;15.85;;;11.82;;
21639;SDS011;10981;45.462;10.974;2023-04-24T02:20:07;19.02;;;13.45;;
21639;SDS011;10981;45.462;10.974;2023-04-24T02:22:38;19.95;;;12.38;;
21639;SDS011;10981;45.462;10.974;2023-04-24T02:25:06;20.13;;;12.50;;
21639;SDS011;10981;45.462;10.974;2023-04-24T02:27:35;18.63;;;13.95;;
21639;SDS011;10981;45.462;10.974;2023-04-24T02:30:05;21.02;;;13.15;;
21639;SDS011;10981;45.462;10.974;2023-04-24T02:32:34;20.23;;;13.70;;
21639;SDS011;10981;45.462;10.974;2023-04-24T02:35:03;22.23;;;14.27;;
21639;SDS011;10981;45.462;10.974;2023-04-24T02:37:32;20.42;;;14.55;;
21639;SDS011;10981;45.462;10.974;2023-04-24T02:40:00;16.35;;;13.18;;
21639;SDS011;10981;45.462;10.974;2023-04-24T02:42:28;21.73;;;14.25;;
21639;SDS011;10981;45.462;10.974;2023-04-24T02:44:57;19.50;;;14.02;;
21639;SDS011;10981;45.462;10.974;2023-04-24T02:47:25;18.92;;;14.88;;
21639;SDS011;10981;45.462;10.974;2023-04-24T02:49:53;18.50;;;13.30;;
21639;SDS011;10981;45.462;10.974;2023-04-24T02:52:22;29.13;;;15.55;;
21639;SDS011;10981;45.462;10.974;2023-04-24T02:54:50;23.95;;;16.67;;
21639;SDS011;10981;45.462;10.974;2023-04-24T02:57:20;23.38;;;17.05;;
21639;SDS011;10981;45.462;10.974;2023-04-24T02:59:49;20.90;;;15.77;;
21639;SDS011;10981;45.462;10.974;2023-04-24T03:02:17;29.73;;;17.48;;
21639;SDS011;10981;45.462;10.974;2023-04-24T03:04:46;20.80;;;15.48;;
21639;SDS011;10981;45.462;10.974;2023-04-24T03:07:17;26.08;;;14.18;;
21639;SDS011;10981;45.462;10.974;2023-04-24T03:09:47;23.52;;;15.63;;
21639;SDS011;10981;45.462;10.974;2023-04-24T03:12:16;18.20;;;14.65;;
21639;SDS011;10981;45.462;10.974;2023-04-24T03:14:45;22.42;;;16.10;;
21639;SDS011;10981;45.462;10.974;2023-04-24T03:17:13;20.13;;;15.35;;
21639;SDS011;10981;45.462;10.974;2023-04-24T03:19:41;24.90;;;16.33;;
21639;SDS011;10981;45.462;10.974;2023-04-24T03:22:11;22.45;;;16.17;;
21639;SDS011;10981;45.462;10.974;2023-04-24T03:24:40;24.85;;;17.40;;
21639;SDS011;10981;45.462;10.974;2023-04-24T03:27:09;20.70;;;14.77;;
21639;SDS011;10981;45.462;10.974;2023-04-24T03:30:00;22.45;;;15.50;;
21639;SDS011;10981;45.462;10.974;2023-04-24T03:32:40;23.90;;;15.68;;
21639;SDS011;10981;45.462;10.974;2023-04-24T03:35:12;22.08;;;16.52;;
21639;SDS011;10981;45.462;10.974;2023-04-24T03:37:40;25.38;;;17.45;;
21639;SDS011;10981;45.462;10.974;2023-04-24T03:40:37;21.90;;;17.00;;
21639;SDS011;10981;45.462;10.974;2023-04-24T03:43:17;31.35;;;17.10;;
21639;SDS011;10981;45.462;10.974;2023-04-24T03:45:47;24.48;;;16.67;;
21639;SDS011;10981;45.462;10.974;2023-04-24T03:48:17;33.40;;;17.13;;
21639;SDS011;10981;45.462;10.974;2023-04-24T03:50:45;25.42;;;16.38;;
21639;SDS011;10981;45.462;10.974;2023-04-24T03:53:14;24.83;;;16.52;;
21639;SDS011;10981;45.462;10.974;2023-04-24T03:55:43;24.02;;;17.95;;
21639;SDS011;10981;45.462;10.974;2023-04-24T03:58:11;23.63;;;16.88;;
21639;SDS011;10981;45.462;10.974;2023-04-24T04:00:41;31.42;;;17.08;;
21639;SDS011;10981;45.462;10.974;2023-04-24T04:03:41;28.85;;;16.98;;
21639;SDS011;10981;45.462;10.974;2023-04-24T04:06:10;27.48;;;17.75;;
21639;SDS011;10981;45.462;10.974;2023-04-24T04:08:41;27.33;;;16.85;;
21639;SDS011;10981;45.462;10.974;2023-04-24T04:11:09;23.73;;;16.88;;
21639;SDS011;10981;45.462;10.974;2023-04-24T04:13:37;23.77;;;16.13;;
21639;SDS011;10981;45.462;10.974;2023-04-24T04:16:06;22.98;;;15.20;;
21639;SDS011;10981;45.462;10.974;2023-04-24T04:18:35;26.70;;;17.25;;
21639;SDS011;10981;45.462;10.974;2023-04-24T04:21:06;25.75;;;16.48;;
21639;SDS011;10981;45.462;10.974;2023-04-24T04:23:35;25.85;;;16.75;;
21639;SDS011;10981;45.462;10.974;2023-04-24T04:26:16;30.75;;;15.88;;
21639;SDS011;10981;45.462;10.974;2023-04-24T04:28:57;25.73;;;14.30;;
21639;SDS011;10981;45.462;10.974;2023-04-24T04:31:25;28.02;;;15.93;;
21639;SDS011;10981;45.462;10.974;2023-04-24T04:33:56;21.80;;;15.43;;
21639;SDS011;10981;45.462;10.974;2023-04-24T04:36:24;28.67;;;16.63;;
21639;SDS011;10981;45.462;10.974;2023-04-24T04:39:00;29.33;;;19.13;;
21639;SDS011;10981;45.462;10.974;2023-04-24T04:41:46;25.00;;;16.80;;
21639;SDS011;10981;45.462;10.974;2023-04-24T04:44:18;25.70;;;16.80;;
21639;SDS011;10981;45.462;10.974;2023-04-24T04:46:46;23.70;;;17.17;;
21639;SDS011;10981;45.462;10.974;2023-04-24T04:49:30;25.25;;;17.90;;
21639;SDS011;10981;45.462;10.974;2023-04-24T04:51:59;26.85;;;19.38;;
21639;SDS011;10981;45.462;10.974;2023-04-24T04:54:28;23.92;;;16.02;;
21639;SDS011;10981;45.462;10.974;2023-04-24T04:56:57;21.15;;;15.85;;
21639;SDS011;10981;45.462;10.974;2023-04-24T04:59:26;26.30;;;15.60;;
21639;SDS011;10981;45.462;10.974;2023-04-24T05:02:01;29.75;;;19.30;;
21639;SDS011;10981;45.462;10.974;2023-04-24T05:04:30;33.47;;;25.08;;
21639;SDS011;10981;45.462;10.974;2023-04-24T05:06:59;29.05;;;19.50;;
21639;SDS011;10981;45.462;10.974;2023-04-24T05:09:30;22.52;;;15.63;;
21639;SDS011;10981;45.462;10.974;2023-04-24T05:14:37;13.93;;;9.70;;
21639;SDS011;10981;45.462;10.974;2023-04-24T05:17:05;12.57;;;9.48;;
21639;SDS011;10981;45.462;10.974;2023-04-24T05:19:35;13.07;;;8.68;;
21639;SDS011;10981;45.462;10.974;2023-04-24T05:22:06;9.88;;;7.13;;
21639;SDS011;10981;45.462;10.974;2023-04-24T05:24:41;5.53;;;3.78;;
21639;SDS011;10981;45.462;10.974;2023-04-24T05:27:29;3.67;;;3.22;;
21639;SDS011;10981;45.462;10.974;2023-04-24T05:29:58;4.13;;;2.67;;
21639;SDS011;10981;45.462;10.974;2023-04-24T05:32:26;5.22;;;3.17;;
21639;SDS011;10981;45.462;10.974;2023-04-24T05:34:55;3.85;;;3.20;;
21639;SDS011;10981;45.462;10.974;2023-04-24T05:37:23;2.72;;;2.20;;
21639;SDS011;10981;45.462;10.974;2023-04-24T05:39:52;4.50;;;2.10;;
21639;SDS011;10981;45.462;10.974;2023-04-24T05:42:20;1.73;;;1.50;;
21639;SDS011;10981;45.462;10.974;2023-04-24T05:44:50;2.60;;;1.58;;
21639;SDS011;10981;45.462;10.974;2023-04-24T05:47:20;2.03;;;1.60;;
21639;SDS011;10981;45.462;10.974;2023-04-24T05:49:50;2.65;;;1.52;;
21639;SDS011;10981;45.462;10.974;2023-04-24T05:52:19;2.97;;;1.30;;
21639;SDS011;10981;45.462;10.974;2023-04-24T05:54:48;1.50;;;1.40;;
21639;SDS011;10981;45.462;10.974;2023-04-24T05:57:23;1.83;;;1.50;;
21639;SDS011;10981;45.462;10.974;2023-04-24T05:59:59;2.65;;;1.88;;
21639;SDS011;10981;45.462;10.974;2023-04-24T06:02:29;2.00;;;1.80;;
21639;SDS011;10981;45.462;10.974;2023-04-24T06:05:00;2.72;;;1.70;;
21639;SDS011;10981;45.462;10.974;2023-04-24T06:07:28;4.22;;;1.80;;
21639;SDS011;10981;45.462;10.974;2023-04-24T06:09:59;3.08;;;1.92;;
21639;SDS011;10981;45.462;10.974;2023-04-24T06:12:29;3.63;;;3.33;;
21639;SDS011;10981;45.462;10.974;2023-04-24T06:15:03;3.65;;;2.70;;
21639;SDS011;10981;45.462;10.974;2023-04-24T06:17:54;3.85;;;2.78;;
21639;SDS011;10981;45.462;10.974;2023-04-24T06:20:23;3.25;;;2.95;;
21639;SDS011;10981;45.462;10.974;2023-04-24T06:22:52;3.42;;;2.80;;
21639;SDS011;10981;45.462;10.974;2023-04-24T06:25:20;2.42;;;2.22;;
21639;SDS011;10981;45.462;10.974;2023-04-24T06:27:50;2.83;;;2.58;;
21639;SDS011;10981;45.462;10.974;2023-04-24T06:30:18;2.78;;;2.15;;
21639;SDS011;10981;45.462;10.974;2023-04-24T06:32:47;2.33;;;2.13;;
21639;SDS011;10981;45.462;10.974;2023-04-24T06:35:15;3.53;;;1.83;;
21639;SDS011;10981;45.462;10.974;2023-04-24T06:37:43;2.90;;;2.00;;
21639;SDS011;10981;45.462;10.974;2023-04-24T06:40:13;5.00;;;1.50;;
21639;SDS011;10981;45.462;10.974;2023-04-24T06:42:41;1.35;;;1.02;;
21639;SDS011;10981;45.462;10.974;2023-04-24T06:45:10;2.63;;;1.30;;
21639;SDS011;10981;45.462;10.974;2023-04-24T06:47:38;1.35;;;1.17;;
21639;SDS011;10981;45.462;10.974;2023-04-24T06:50:06;2.35;;;1.27;;
21639;SDS011;10981;45.462;10.974;2023-04-24T06:52:35;3.45;;;1.10;;
21639;SDS011;10981;45.462;10.974;2023-04-24T06:55:03;1.20;;;0.88;;
21639;SDS011;10981;45.462;10.974;2023-04-24T06:57:32;3.17;;;1.27;;
21639;SDS011;10981;45.462;10.974;2023-04-24T07:00:01;2.35;;;1.40;;
21639;SDS011;10981;45.462;10.974;2023-04-24T07:02:31;6.75;;;2.63;;
21639;SDS011;10981;45.462;10.974;2023-04-24T07:04:59;4.05;;;2.63;;
21639;SDS011;10981;45.462;10.974;2023-04-24T07:07:28;8.15;;;3.42;;
21639;SDS011;10981;45.462;10.974;2023-04-24T07:09:57;4.45;;;3.05;;
21639;SDS011;10981;45.462;10.974;2023-04-24T07:12:25;4.65;;;2.70;;
21639;SDS011;10981;45.462;10.974;2023-04-24T07:14:53;3.05;;;2.08;;
21639;SDS011;10981;45.462;10.974;2023-04-24T07:17:22;2.38;;;1.85;;
21639;SDS011;10981;45.462;10.974;2023-04-24T07:19:50;2.13;;;1.67;;
21639;SDS011;10981;45.462;10.974;2023-04-24T07:22:19;2.80;;;2.53;;
21639;SDS011;10981;45.462;10.974;2023-04-24T07:24:47;3.03;;;2.72;;
21639;SDS011;10981;45.462;10.974;2023-04-24T07:27:15;3.25;;;1.60;;
21639;SDS011;10981;45.462;10.974;2023-04-24T07:29:43;0.75;;;0.75;;
21639;SDS011;10981;45.462;10.974;2023-04-24T07:32:12;1.20;;;0.60;;
21639;SDS011;10981;45.462;10.974;2023-04-24T07:34:40;0.45;;;0.40;;
21639;SDS011;10981;45.462;10.974;2023-04-24T07:37:09;1.20;;;0.40;;
21639;SDS011;10981;45.462;10.974;2023-04-24T07:39:37;1.20;;;0.55;;
21639;SDS011;10981;45.462;10.974;2023-04-24T07:42:05;0.68;;;0.50;;
21639;SDS011;10981;45.462;10.974;2023-04-24T07:44:34;0.75;;;0.45;;
21639;SDS011;10981;45.462;10.974;2023-04-24T07:47:03;1.23;;;0.70;;
21639;SDS011;10981;45.462;10.974;2023-04-24T07:49:31;1.38;;;0.80;;
21639;SDS011;10981;45.462;10.974;2023-04-24T07:52:01;1.40;;;0.95;;
21639;SDS011;10981;45.462;10.974;2023-04-24T07:54:30;0.68;;;0.57;;
21639;SDS011;10981;45.462;10.974;2023-04-24T07:56:58;2.75;;;0.82;;
21639;SDS011;10981;45.462;10.974;2023-04-24T07:59:27;1.38;;;0.73;;
21639;SDS011;10981;45.462;10.974;2023-04-24T08:01:56;7.93;;;3.55;;
21639;SDS011;10981;45.462;10.974;2023-04-24T08:04:24;2.78;;;0.93;;
21639;SDS011;10981;45.462;10.974;2023-04-24T08:06:53;2.92;;;0.70;;
21639;SDS011;10981;45.462;10.974;2023-04-24T08:09:21;1.17;;;0.70;;
21639;SDS011;10981;45.462;10.974;2023-04-24T08:11:52;14.40;;;10.13;;
21639;SDS011;10981;45.462;10.974;2023-04-24T08:14:21;13.82;;;9.80;;
21639;SDS011;10981;45.462;10.974;2023-04-24T08:16:49;5.22;;;2.85;;
21639;SDS011;10981;45.462;10.974;2023-04-24T08:19:17;1.55;;;0.73;;
21639;SDS011;10981;45.462;10.974;2023-04-24T08:21:45;1.42;;;1.00;;
21639;SDS011;10981;45.462;10.974;2023-04-24T08:24:14;0.60;;;0.60;;
21639;SDS011;10981;45.462;10.974;2023-04-24T08:26:42;1.33;;;0.70;;
21639;SDS011;10981;45.462;10.974;2023-04-24T08:29:10;0.57;;;0.50;;
21639;SDS011;10981;45.462;10.974;2023-04-24T08:31:39;3.00;;;0.80;;
21639;SDS011;10981;45.462;10.974;2023-04-24T08:34:07;1.35;;;1.08;;
21639;SDS011;10981;45.462;10.974;2023-04-24T08:36:36;5.53;;;3.97;;
21639;SDS011;10981;45.462;10.974;2023-04-24T08:39:14;0.85;;;0.80;;
21639;SDS011;10981;45.462;10.974;2023-04-24T08:41:43;0.90;;;0.40;;
21639;SDS011;10981;45.462;10.974;2023-04-24T08:44:12;1.83;;;0.30;;
21639;SDS011;10981;45.462;10.974;2023-04-24T08:46:43;0.75;;;0.32;;
21639;SDS011;10981;45.462;10.974;2023-04-24T08:49:15;1.05;;;0.90;;
21639;SDS011;10981;45.462;10.974;2023-04-24T08:51:44;0.60;;;0.60;;
21639;SDS011;10981;45.462;10.974;2023-04-24T08:54:14;2.75;;;1.77;;
21639;SDS011;10981;45.462;10.974;2023-04-24T08:56:43;16.85;;;9.43;;
21639;SDS011;10981;45.462;10.974;2023-04-24T08:59:15;10.02;;;5.20;;
21639;SDS011;10981;45.462;10.974;2023-04-24T09:01:44;4.85;;;1.85;;
21639;SDS011;10981;45.462;10.974;2023-04-24T09:04:15;0.88;;;0.70;;
21639;SDS011;10981;45.462;10.974;2023-04-24T09:06:48;0.93;;;0.32;;
21639;SDS011;10981;45.462;10.974;2023-04-24T09:09:17;0.80;;;0.43;;
21639;SDS011;10981;45.462;10.974;2023-04-24T09:11:46;2.50;;;0.40;;
21639;SDS011;10981;45.462;10.974;2023-04-24T09:14:16;5.70;;;0.68;;
21639;SDS011;10981;45.462;10.974;2023-04-24T09:16:45;1.10;;;0.63;;
21639;SDS011;10981;45.462;10.974;2023-04-24T09:19:14;1.00;;;0.90;;
21639;SDS011;10981;45.462;10.974;2023-04-24T09:21:45;1.83;;;0.90;;
21639;SDS011;10981;45.462;10.974;2023-04-24T09:24:17;1.30;;;0.77;;
21639;SDS011;10981;45.462;10.974;2023-04-24T09:26:55;2.85;;;1.20;;
21639;SDS011;10981;45.462;10.974;2023-04-24T09:29:31;1.80;;;1.02;;
21639;SDS011;10981;45.462;10.974;2023-04-24T09:32:01;1.75;;;0.98;;
21639;SDS011;10981;45.462;10.974;2023-04-24T09:34:49;1.35;;;0.95;;
21639;SDS011;10981;45.462;10.974;2023-04-24T09:37:34;1.85;;;1.02;;
21639;SDS011;10981;45.462;10.974;2023-04-24T09:42:59;3.17;;;1.20;;
21639;SDS011;10981;45.462;10.974;2023-04-24T09:45:36;1.00;;;0.82;;
21639;SDS011;10981;45.462;10.974;2023-04-24T09:48:09;4.25;;;1.00;;
21639;SDS011;10981;45.462;10.974;2023-04-24T09:50:38;2.97;;;0.88;;
21639;SDS011;10981;45.462;10.974;2023-04-24T09:53:12;2.60;;;1.10;;
21639;SDS011;10981;45.462;10.974;2023-04-24T09:55:44;0.85;;;0.57;;
21639;SDS011;10981;45.462;10.974;2023-04-24T09:58:15;2.17;;;1.33;;
21639;SDS011;10981;45.462;10.974;2023-04-24T10:00:43;1.70;;;0.90;;
21639;SDS011;10981;45.462;10.974;2023-04-24T10:03:13;1.30;;;0.90;;
21639;SDS011;10981;45.462;10.974;2023-04-24T10:05:42;2.17;;;0.75;;
21639;SDS011;10981;45.462;10.974;2023-04-24T10:08:13;1.70;;;1.10;;
21639;SDS011;10981;45.462;10.974;2023-04-24T10:10:42;1.27;;;0.93;;
21639;SDS011;10981;45.462;10.974;2023-04-24T10:13:13;1.25;;;0.98;;
21639;SDS011;10981;45.462;10.974;2023-04-24T10:15:45;5.10;;;1.23;;
21639;SDS011;10981;45.462;10.974;2023-04-24T10:18:15;1.70;;;1.48;;
21639;SDS011;10981;45.462;10.974;2023-04-24T10:20:44;1.90;;;1.48;;
21639;SDS011;10981;45.462;10.974;2023-04-24T10:23:12;1.98;;;1.23;;
21639;SDS011;10981;45.462;10.974;2023-04-24T10:25:41;1.60;;;1.17;;
21639;SDS011;10981;45.462;10.974;2023-04-24T10:28:10;1.63;;;1.02;;
21639;SDS011;10981;45.462;10.974;2023-04-24T10:30:39;1.50;;;1.10;;
21639;SDS011;10981;45.462;10.974;2023-04-24T10:33:10;7.50;;;2.35;;
21639;SDS011;10981;45.462;10.974;2023-04-24T10:35:44;1.73;;;1.17;;
21639;SDS011;10981;45.462;10.974;2023-04-24T10:38:21;1.50;;;0.77;;
21639;SDS011;10981;45.462;10.974;2023-04-24T10:40:56;1.13;;;0.90;;
21639;SDS011;10981;45.462;10.974;2023-04-24T10:43:35;2.37;;;1.30;;
21639;SDS011;10981;45.462;10.974;2023-04-24T10:46:04;1.38;;;0.82;;
21639;SDS011;10981;45.462;10.974;2023-04-24T10:48:33;2.80;;;1.02;;
21639;SDS011;10981;45.462;10.974;2023-04-24T10:51:02;2.90;;;1.33;;
21639;SDS011;10981;45.462;10.974;2023-04-24T10:53:30;1.20;;;0.90;;
21639;SDS011;10981;45.462;10.974;2023-04-24T10:56:02;1.52;;;0.95;;
21639;SDS011;10981;45.462;10.974;2023-04-24T11:01:31;1.85;;;1.20;;
21639;SDS011;10981;45.462;10.974;2023-04-24T11:04:01;1.13;;;0.85;;
21639;SDS011;10981;45.462;10.974;2023-04-24T11:06:34;2.42;;;0.80;;
21639;SDS011;10981;45.462;10.974;2023-04-24T11:09:04;0.90;;;0.70;;
21639;SDS011;10981;45.462;10.974;2023-04-24T11:11:35;2.40;;;1.10;;
21639;SDS011;10981;45.462;10.974;2023-04-24T11:14:05;2.78;;;1.50;;
21639;SDS011;10981;45.462;10.974;2023-04-24T11:16:35;4.15;;;1.10;;
21639;SDS011;10981;45.462;10.974;2023-04-24T11:19:25;5.13;;;1.27;;
21639;SDS011;10981;45.462;10.974;2023-04-24T11:22:02;2.55;;;1.70;;
21639;SDS011;10981;45.462;10.974;2023-04-24T11:24:38;1.58;;;1.38;;
21639;SDS011;10981;45.462;10.974;2023-04-24T11:27:16;2.70;;;1.23;;
21639;SDS011;10981;45.462;10.974;2023-04-24T11:32:28;1.23;;;0.90;;
21639;SDS011;10981;45.462;10.974;2023-04-24T11:35:02;1.08;;;1.05;;
21639;SDS011;10981;45.462;10.974;2023-04-24T11:37:36;0.73;;;0.70;;
21639;SDS011;10981;45.462;10.974;2023-04-24T11:40:06;0.57;;;0.57;;
21639;SDS011;10981;45.462;10.974;2023-04-24T11:42:40;4.05;;;0.60;;
21639;SDS011;10981;45.462;10.974;2023-04-24T11:47:41;0.90;;;0.73;;
21639;SDS011;10981;45.462;10.974;2023-04-24T11:50:17;1.00;;;0.60;;
21639;SDS011;10981;45.462;10.974;2023-04-24T11:52:47;0.68;;;0.50;;
21639;SDS011;10981;45.462;10.974;2023-04-24T11:57:46;3.05;;;0.50;;
21639;SDS011;10981;45.462;10.974;2023-04-24T12:00:16;0.45;;;0.25;;
21639;SDS011;10981;45.462;10.974;2023-04-24T12:02:46;0.40;;;0.32;;
21639;SDS011;10981;45.462;10.974;2023-04-24T12:05:22;0.30;;;0.30;;
21639;SDS011;10981;45.462;10.974;2023-04-24T12:07:53;0.68;;;0.45;;
21639;SDS011;10981;45.462;10.974;2023-04-24T12:10:25;1.05;;;0.50;;
21639;SDS011;10981;45.462;10.974;2023-04-24T12:12:57;1.20;;;0.52;;
21639;SDS011;10981;45.462;10.974;2023-04-24T12:15:27;1.08;;;0.60;;
21639;SDS011;10981;45.462;10.974;2023-04-24T12:17:55;0.52;;;0.52;;
21639;SDS011;10981;45.462;10.974;2023-04-24T12:20:28;1.40;;;0.50;;
21639;SDS011;10981;45.462;10.974;2023-04-24T12:25:28;0.60;;;0.60;;
21639;SDS011;10981;45.462;10.974;2023-04-24T12:30:34;0.57;;;0.50;;
21639;SDS011;10981;45.462;10.974;2023-04-24T12:33:06;0.45;;;0.40;;
21639;SDS011;10981;45.462;10.974;2023-04-24T12:35:35;0.68;;;0.50;;
21639;SDS011;10981;45.462;10.974;2023-04-24T12:38:10;1.40;;;0.90;;
21639;SDS011;10981;45.462;10.974;2023-04-24T12:40:40;1.00;;;0.75;;
21639;SDS011;10981;45.462;10.974;2023-04-24T12:43:16;0.63;;;0.60;;
21639;SDS011;10981;45.462;10.974;2023-04-24T12:45:47;2.88;;;1.00;;
21639;SDS011;10981;45.462;10.974;2023-04-24T12:48:15;1.15;;;0.88;;
21639;SDS011;10981;45.462;10.974;2023-04-24T12:50:44;4.45;;;1.67;;
21639;SDS011;10981;45.462;10.974;2023-04-24T12:53:13;1.42;;;1.20;;
21639;SDS011;10981;45.462;10.974;2023-04-24T12:55:43;1.15;;;0.98;;
21639;SDS011;10981;45.462;10.974;2023-04-24T12:58:12;3.42;;;1.30;;
21639;SDS011;10981;45.462;10.974;2023-04-24T13:00:40;1.10;;;1.00;;
21639;SDS011;10981;45.462;10.974;2023-04-24T13:03:10;1.90;;;1.10;;
21639;SDS011;10981;45.462;10.974;2023-04-24T13:05:42;0.80;;;0.80;;
21639;SDS011;10981;45.462;10.974;2023-04-24T13:08:11;1.92;;;1.38;;
21639;SDS011;10981;45.462;10.974;2023-04-24T13:10:40;3.25;;;1.40;;
21639;SDS011;10981;45.462;10.974;2023-04-24T13:13:08;2.40;;;1.20;;
21639;SDS011;10981;45.462;10.974;2023-04-24T13:15:36;2.03;;;1.10;;
21639;SDS011;10981;45.462;10.974;2023-04-24T13:18:05;1.55;;;0.70;;
21639;SDS011;10981;45.462;10.974;2023-04-24T13:20:33;1.20;;;1.00;;
21639;SDS011;10981;45.462;10.974;2023-04-24T13:23:02;1.08;;;0.93;;
21639;SDS011;10981;45.462;10.974;2023-04-24T13:25:34;1.60;;;1.00;;
21639;SDS011;10981;45.462;10.974;2023-04-24T13:28:04;1.77;;;1.20;;
21639;SDS011;10981;45.462;10.974;2023-04-24T13:30:33;2.20;;;1.88;;
21639;SDS011;10981;45.462;10.974;2023-04-24T13:33:01;3.40;;;2.63;;
21639;SDS011;10981;45.462;10.974;2023-04-24T13:35:30;5.07;;;2.55;;
21639;SDS011;10981;45.462;10.974;2023-04-24T13:37:58;3.08;;;2.28;;
21639;SDS011;10981;45.462;10.974;2023-04-24T13:40:28;4.45;;;2.00;;
21639;SDS011;10981;45.462;10.974;2023-04-24T13:42:56;2.00;;;1.42;;
21639;SDS011;10981;45.462;10.974;2023-04-24T13:45:24;2.38;;;1.80;;
21639;SDS011;10981;45.462;10.974;2023-04-24T13:47:53;2.60;;;1.52;;
21639;SDS011;10981;45.462;10.974;2023-04-24T13:50:21;2.08;;;1.10;;
21639;SDS011;10981;45.462;10.974;2023-04-24T13:52:50;1.75;;;1.23;;
21639;SDS011;10981;45.462;10.974;2023-04-24T13:55:18;2.15;;;1.55;;
21639;SDS011;10981;45.462;10.974;2023-04-24T13:57:47;1.77;;;0.98;;
21639;SDS011;10981;45.462;10.974;2023-04-24T14:00:16;1.10;;;1.00;;
21639;SDS011;10981;45.462;10.974;2023-04-24T14:02:44;3.00;;;1.70;;
21639;SDS011;10981;45.462;10.974;2023-04-24T14:05:13;1.58;;;1.42;;
21639;SDS011;10981;45.462;10.974;2023-04-24T14:07:42;3.72;;;1.73;;
21639;SDS011;10981;45.462;10.974;2023-04-24T14:10:10;3.90;;;2.00;;
21639;SDS011;10981;45.462;10.974;2023-04-24T14:12:39;3.20;;;2.00;;
21639;SDS011;10981;45.462;10.974;2023-04-24T14:15:07;10.98;;;1.88;;
21639;SDS011;10981;45.462;10.974;2023-04-24T14:17:37;8.13;;;2.10;;
21639;SDS011;10981;45.462;10.974;2023-04-24T14:20:05;4.90;;;1.88;;
21639;SDS011;10981;45.462;10.974;2023-04-24T14:22:34;9.77;;;2.20;;
21639;SDS011;10981;45.462;10.974;2023-04-24T14:25:02;2.03;;;1.67;;
21639;SDS011;10981;45.462;10.974;2023-04-24T14:27:32;3.55;;;1.92;;
21639;SDS011;10981;45.462;10.974;2023-04-24T14:30:01;23.63;;;4.15;;
21639;SDS011;10981;45.462;10.974;2023-04-24T14:32:31;14.07;;;2.58;;
21639;SDS011;10981;45.462;10.974;2023-04-24T14:34:59;10.48;;;2.42;;
21639;SDS011;10981;45.462;10.974;2023-04-24T14:37:27;2.65;;;1.50;;
21639;SDS011;10981;45.462;10.974;2023-04-24T14:39:55;5.50;;;2.40;;
21639;SDS011;10981;45.462;10.974;2023-04-24T14:42:44;2.30;;;2.10;;
21639;SDS011;10981;45.462;10.974;2023-04-24T14:45:12;5.07;;;2.70;;
21639;SDS011;10981;45.462;10.974;2023-04-24T14:47:41;5.05;;;3.22;;
21639;SDS011;10981;45.462;10.974;2023-04-24T14:50:10;4.70;;;3.30;;
21639;SDS011;10981;45.462;10.974;2023-04-24T14:52:39;6.05;;;3.50;;
21639;SDS011;10981;45.462;10.974;2023-04-24T14:55:08;4.88;;;3.63;;
21639;SDS011;10981;45.462;10.974;2023-04-24T14:57:36;11.95;;;3.38;;
21639;SDS011;10981;45.462;10.974;2023-04-24T15:00:05;4.20;;;2.97;;
21639;SDS011;10981;45.462;10.974;2023-04-24T15:02:38;4.03;;;3.10;;
21639;SDS011;10981;45.462;10.974;2023-04-24T15:05:09;6.38;;;3.13;;
21639;SDS011;10981;45.462;10.974;2023-04-24T15:07:38;4.85;;;3.10;;